createdAt,value
2022-10-05T00:01:07.767Z,9.90
2022-10-05T00:04:16.253Z,9.90
2022-10-05T00:07:17.734Z,9.90
2022-10-05T00:10:07.956Z,9.80
2022-10-05T00:12:55.215Z,9.90
2022-10-05T00:15:43.650Z,9.80
2022-10-05T00:18:31.221Z,9.80
2022-10-05T00:21:26.973Z,9.60
2022-10-05T00:24:17.002Z,9.50
2022-10-05T00:27:16.789Z,9.50
2022-10-05T00:30:10.230Z,9.60
2022-10-05T00:32:59.833Z,9.60
2022-10-05T00:35:46.247Z,9.60
2022-10-05T00:38:33.989Z,9.60
2022-10-05T00:41:24.208Z,9.60
2022-10-05T00:44:17.392Z,9.60
2022-10-05T00:47:33.389Z,9.60
2022-10-05T00:50:36.001Z,9.60
2022-10-05T00:53:32.463Z,9.50
2022-10-05T00:56:28.523Z,9.30
2022-10-05T00:59:36.915Z,9.10
2022-10-05T01:02:37.032Z,9.00
2022-10-05T01:05:57.511Z,8.90
2022-10-05T01:09:15.221Z,8.80
2022-10-05T01:12:23.649Z,8.80
2022-10-05T01:15:16.917Z,8.80
2022-10-05T01:18:15.947Z,8.90
2022-10-05T01:21:27.458Z,8.90
2022-10-05T01:24:34.091Z,8.80
2022-10-05T01:27:39.667Z,8.70
2022-10-05T01:30:27.847Z,8.80
2022-10-05T01:33:21.425Z,8.90
2022-10-05T01:36:17.720Z,8.80
2022-10-05T01:39:15.437Z,8.70
2022-10-05T01:42:05.972Z,8.60
2022-10-05T01:45:02.018Z,8.60
2022-10-05T01:47:52.454Z,8.50
2022-10-05T01:50:54.940Z,8.50
2022-10-05T01:53:51.234Z,8.60
2022-10-05T01:56:41.594Z,8.70
2022-10-05T02:00:00.609Z,8.80
2022-10-05T02:02:50.901Z,8.80
2022-10-05T02:05:44.195Z,8.80
2022-10-05T02:08:34.816Z,8.80
2022-10-05T02:11:22.877Z,8.80
2022-10-05T02:14:16.189Z,8.70
2022-10-05T02:17:06.728Z,8.60
2022-10-05T02:19:57.500Z,8.50
2022-10-05T02:22:55.568Z,8.40
2022-10-05T02:25:46.213Z,8.40
2022-10-05T02:28:39.632Z,8.30
2022-10-05T02:31:47.697Z,8.40
2022-10-05T02:34:42.580Z,8.40
2022-10-05T02:37:35.603Z,8.50
2022-10-05T02:40:31.633Z,8.40
2022-10-05T02:43:45.851Z,8.30
2022-10-05T02:46:36.669Z,8.10
2022-10-05T02:49:41.881Z,7.90
2022-10-05T02:52:44.557Z,7.90
2022-10-05T02:55:54.367Z,8.00
2022-10-05T02:58:47.817Z,8.10
2022-10-05T03:01:56.401Z,8.00
2022-10-05T03:04:52.668Z,8.00
2022-10-05T03:07:45.503Z,7.80
2022-10-05T03:10:52.663Z,7.90
2022-10-05T03:13:49.170Z,7.90
2022-10-05T03:16:42.862Z,8.00
2022-10-05T03:20:02.246Z,7.90
2022-10-05T03:22:55.591Z,7.90
2022-10-05T03:25:51.900Z,7.80
2022-10-05T03:28:51.288Z,7.80
2022-10-05T03:31:44.426Z,7.80
2022-10-05T03:34:58.177Z,7.90
2022-10-05T03:38:07.987Z,8.00
2022-10-05T03:41:01.341Z,8.20
2022-10-05T03:44:03.873Z,8.50
2022-10-05T03:47:21.671Z,8.60
2022-10-05T03:50:37.473Z,8.70
2022-10-05T03:53:30.873Z,8.90
2022-10-05T03:56:32.904Z,9.10
2022-10-05T03:59:23.404Z,9.20
2022-10-05T04:02:25.974Z,9.30
2022-10-05T04:05:16.177Z,9.50
2022-10-05T04:08:08.887Z,9.70
2022-10-05T04:10:59.200Z,9.90
2022-10-05T04:14:24.118Z,10.10
2022-10-05T04:17:14.768Z,10.10
2022-10-05T04:20:08.562Z,10.30
2022-10-05T04:23:20.035Z,10.40
2022-10-05T04:26:13.524Z,10.50
2022-10-05T04:29:09.645Z,10.60
2022-10-05T04:32:02.710Z,10.60
2022-10-05T04:35:21.760Z,10.80
2022-10-05T04:38:28.677Z,10.90
2022-10-05T04:41:39.018Z,11.10
2022-10-05T04:44:38.507Z,11.20
2022-10-05T04:47:48.193Z,11.30
2022-10-05T04:50:44.426Z,11.30
2022-10-05T04:53:43.093Z,11.50
2022-10-05T04:56:33.289Z,11.70
2022-10-05T04:59:38.618Z,11.80
2022-10-05T05:03:05.157Z,11.90
2022-10-05T05:06:17.467Z,12.00
2022-10-05T05:09:17.381Z,12.00
2022-10-05T05:12:14.261Z,12.10
2022-10-05T05:15:13.192Z,12.10
2022-10-05T05:18:11.993Z,12.10
2022-10-05T05:21:08.283Z,12.00
2022-10-05T05:24:13.146Z,12.00
2022-10-05T05:27:21.454Z,12.10
2022-10-05T05:30:17.980Z,12.10
2022-10-05T05:33:27.218Z,12.10
2022-10-05T05:36:38.473Z,12.20
2022-10-05T05:39:31.626Z,12.20
2022-10-05T05:42:41.647Z,12.10
2022-10-05T05:45:50.312Z,12.10
2022-10-05T05:48:46.718Z,12.10
2022-10-05T05:51:40.404Z,12.10
2022-10-05T05:54:43.484Z,12.20
2022-10-05T05:57:39.967Z,12.10
2022-10-05T06:00:30.555Z,12.10
2022-10-05T06:03:40.845Z,12.10
2022-10-05T06:06:31.468Z,12.00
2022-10-05T06:09:31.085Z,12.00
2022-10-05T06:12:23.971Z,12.20
2022-10-05T06:15:31.033Z,12.20
2022-10-05T06:18:21.572Z,12.30
2022-10-05T06:21:23.653Z,12.40
2022-10-05T06:24:25.977Z,12.40
2022-10-05T06:27:28.079Z,12.50
2022-10-05T06:30:17.815Z,12.50
2022-10-05T06:33:13.961Z,12.50
2022-10-05T06:36:16.296Z,12.40
2022-10-05T06:39:23.636Z,12.30
2022-10-05T06:42:13.489Z,12.30
2022-10-05T06:45:24.635Z,12.20
2022-10-05T06:48:28.612Z,12.10
2022-10-05T06:51:23.251Z,12.10
2022-10-05T06:54:40.164Z,12.10
2022-10-05T06:57:36.879Z,12.40
2022-10-05T07:00:57.245Z,12.60
2022-10-05T07:03:56.596Z,12.50
2022-10-05T07:06:56.002Z,12.50
2022-10-05T07:09:52.155Z,12.60
2022-10-05T07:13:05.571Z,12.70
2022-10-05T07:16:07.585Z,12.90
2022-10-05T07:19:21.027Z,13.10
2022-10-05T07:22:20.303Z,13.20
2022-10-05T07:25:20.141Z,13.50
2022-10-05T07:28:10.495Z,13.60
2022-10-05T07:31:06.321Z,13.70
2022-10-05T07:34:11.859Z,13.60
2022-10-05T07:37:18.750Z,13.50
2022-10-05T07:40:18.075Z,13.60
2022-10-05T07:44:03.395Z,13.70
2022-10-05T07:47:09.414Z,13.50
2022-10-05T07:50:05.803Z,13.50
2022-10-05T07:53:21.199Z,13.70
2022-10-05T07:56:17.966Z,13.90
2022-10-05T07:59:17.500Z,14.00
2022-10-05T08:02:14.512Z,14.20
2022-10-05T08:05:13.347Z,14.20
2022-10-05T08:08:27.034Z,14.30
2022-10-05T08:11:49.639Z,14.50
2022-10-05T08:15:00.549Z,14.50
2022-10-05T08:18:14.242Z,14.30
2022-10-05T08:21:10.139Z,14.20
2022-10-05T08:24:23.379Z,14.20
2022-10-05T08:27:39.220Z,14.00
2022-10-05T08:30:27.329Z,13.80
2022-10-05T08:33:18.130Z,13.60
2022-10-05T08:36:09.254Z,13.60
2022-10-05T08:39:20.366Z,13.80
2022-10-05T08:46:14.281Z,13.90
2022-10-05T08:49:20.872Z,14.00
2022-10-05T08:52:34.308Z,14.00
2022-10-05T08:56:12.899Z,14.10
2022-10-05T08:59:26.580Z,14.10
2022-10-05T09:06:24.708Z,14.40
2022-10-05T09:09:43.774Z,14.50
2022-10-05T09:13:08.011Z,14.40
2022-10-05T09:23:05.279Z,14.50
2022-10-05T09:26:11.565Z,14.70
2022-10-05T09:29:26.019Z,14.80
2022-10-05T09:32:49.976Z,15.00
2022-10-05T09:36:07.348Z,15.10
2022-10-05T09:39:26.817Z,15.20
2022-10-05T09:42:31.963Z,15.20
2022-10-05T09:45:46.281Z,15.30
2022-10-05T09:48:37.381Z,15.20
2022-10-05T09:51:46.919Z,15.50
2022-10-05T09:55:09.321Z,15.80
2022-10-05T09:58:40.228Z,15.70
2022-10-05T10:01:58.463Z,15.90
2022-10-05T10:05:09.840Z,16.30
2022-10-05T10:08:20.340Z,16.30
2022-10-05T10:11:19.380Z,16.40
2022-10-05T10:14:12.805Z,16.70
2022-10-05T10:17:15.621Z,16.50
2022-10-05T10:20:18.270Z,16.50
2022-10-05T10:23:20.507Z,16.20
2022-10-05T10:26:17.301Z,16.40
2022-10-05T10:29:10.591Z,16.50
2022-10-05T10:32:01.536Z,16.50
2022-10-05T10:35:09.934Z,16.40
2022-10-05T10:38:03.196Z,16.30
2022-10-05T10:41:16.017Z,16.30
2022-10-05T10:44:12.222Z,16.30
2022-10-05T10:47:14.045Z,16.30
2022-10-05T10:50:23.891Z,16.20
2022-10-05T10:53:37.062Z,16.60
2022-10-05T10:56:56.092Z,17.10
2022-10-05T11:00:03.465Z,17.00
2022-10-05T11:03:08.948Z,17.20
2022-10-05T11:06:07.129Z,17.60
2022-10-05T11:09:24.125Z,17.60
2022-10-05T11:12:49.687Z,17.60
2022-10-05T11:16:15.971Z,17.50
2022-10-05T11:19:08.010Z,17.70
2022-10-05T11:22:16.026Z,17.90
2022-10-05T11:25:06.255Z,17.80
2022-10-05T11:28:14.990Z,17.80
2022-10-05T11:31:31.226Z,17.90
2022-10-05T11:34:43.862Z,18.00
2022-10-05T11:37:39.812Z,18.00
2022-10-05T11:40:36.315Z,18.00
2022-10-05T11:43:26.709Z,18.10
2022-10-05T11:46:35.251Z,18.10
2022-10-05T11:49:49.906Z,18.30
2022-10-05T11:52:55.770Z,18.30
2022-10-05T11:56:09.804Z,18.30
2022-10-05T11:59:07.155Z,18.40
2022-10-05T12:02:00.533Z,18.60
2022-10-05T12:05:13.645Z,18.50
2022-10-05T12:08:44.247Z,18.50
2022-10-05T12:12:01.250Z,18.40
2022-10-05T12:15:27.728Z,18.60
2022-10-05T12:18:34.249Z,18.80
2022-10-05T12:21:32.538Z,19.00
2022-10-05T12:24:38.626Z,19.00
2022-10-05T12:27:46.735Z,18.90
2022-10-05T12:30:58.133Z,19.10
2022-10-05T12:34:12.801Z,19.30
2022-10-05T12:37:09.432Z,19.50
2022-10-05T12:40:17.850Z,19.70
2022-10-05T12:43:31.394Z,20.00
2022-10-05T12:46:39.981Z,20.50
2022-10-05T12:49:45.180Z,20.50
2022-10-05T12:52:40.529Z,20.60
2022-10-05T12:55:53.086Z,20.80
2022-10-05T12:59:01.860Z,20.40
2022-10-05T13:02:26.144Z,20.50
2022-10-05T13:05:15.909Z,20.60
2022-10-05T13:08:10.467Z,20.60
2022-10-05T13:11:17.504Z,20.60
2022-10-05T13:14:07.926Z,20.50
2022-10-05T13:17:16.271Z,20.40
2022-10-05T13:20:24.583Z,20.20
2022-10-05T13:23:40.218Z,20.40
2022-10-05T13:26:30.598Z,20.40
2022-10-05T13:29:56.201Z,20.40
2022-10-05T13:33:19.756Z,20.60
2022-10-05T13:36:16.429Z,20.40
2022-10-05T13:39:32.166Z,20.30
2022-10-05T13:42:30.404Z,20.40
2022-10-05T13:45:27.053Z,20.40
2022-10-05T13:48:24.150Z,20.60
2022-10-05T13:51:15.617Z,20.80
2022-10-05T13:54:35.968Z,20.80
2022-10-05T13:57:25.499Z,20.90
2022-10-05T14:00:27.442Z,21.00
2022-10-05T14:03:42.437Z,21.00
2022-10-05T14:06:38.080Z,21.00
2022-10-05T14:09:47.171Z,21.00
2022-10-05T14:12:51.640Z,21.00
2022-10-05T14:15:45.851Z,20.80
2022-10-05T14:18:51.803Z,21.00
2022-10-05T14:21:59.650Z,21.00
2022-10-05T14:25:11.194Z,21.10
2022-10-05T14:28:20.611Z,21.00
2022-10-05T14:31:19.234Z,21.10
2022-10-05T14:34:31.693Z,21.10
2022-10-05T14:37:28.986Z,21.00
2022-10-05T14:40:33.863Z,20.90
2022-10-05T14:43:22.241Z,20.90
2022-10-05T14:46:25.314Z,21.10
2022-10-05T14:49:36.691Z,21.10
2022-10-05T14:52:49.609Z,21.10
2022-10-05T14:55:45.363Z,21.10
2022-10-05T15:02:37.412Z,21.00
2022-10-05T15:05:30.296Z,21.00
2022-10-05T15:08:53.520Z,21.10
2022-10-05T15:11:52.289Z,21.10
2022-10-05T15:14:44.903Z,21.20
2022-10-05T15:17:49.497Z,21.10
2022-10-05T15:20:48.604Z,21.10
2022-10-05T15:23:46.043Z,21.00
2022-10-05T15:26:45.719Z,21.10
2022-10-05T15:29:54.746Z,21.40
2022-10-05T15:33:05.166Z,21.10
2022-10-05T15:36:10.748Z,21.20
2022-10-05T15:39:01.890Z,21.20
2022-10-05T15:42:08.052Z,21.30
2022-10-05T15:45:07.705Z,21.30
2022-10-05T15:48:00.820Z,21.20
2022-10-05T15:50:57.243Z,21.20
2022-10-05T15:53:48.887Z,21.60
2022-10-05T15:56:39.314Z,21.50
2022-10-05T15:59:38.979Z,21.40
2022-10-05T16:02:32.402Z,21.40
2022-10-05T16:05:58.857Z,21.30
2022-10-05T16:08:58.663Z,21.30
2022-10-05T16:12:14.654Z,21.30
2022-10-05T16:15:21.749Z,21.30
2022-10-05T16:18:36.140Z,21.10
2022-10-05T16:21:43.441Z,20.90
2022-10-05T16:24:43.005Z,20.90
2022-10-05T16:28:07.662Z,20.80
2022-10-05T16:31:13.135Z,20.80
2022-10-05T16:34:18.113Z,20.90
2022-10-05T16:37:11.228Z,20.80
2022-10-05T16:40:18.539Z,20.70
2022-10-05T16:43:25.557Z,20.60
2022-10-05T16:46:22.067Z,20.50
2022-10-05T16:49:29.741Z,20.30
2022-10-05T16:52:21.318Z,20.20
2022-10-05T16:55:13.274Z,20.10
2022-10-05T16:58:02.917Z,20.00
2022-10-05T17:00:56.327Z,19.80
2022-10-05T17:04:06.429Z,19.70
2022-10-05T17:07:09.263Z,19.50
2022-10-05T17:10:26.693Z,19.30
2022-10-05T17:13:22.992Z,19.20
2022-10-05T17:16:37.404Z,19.00
2022-10-05T17:19:27.726Z,18.80
2022-10-05T17:22:40.998Z,18.60
2022-10-05T17:25:52.527Z,18.50
2022-10-05T17:28:59.523Z,18.30
2022-10-05T17:32:09.450Z,18.20
2022-10-05T17:35:18.418Z,18.00
2022-10-05T17:38:13.201Z,17.90
2022-10-05T17:41:06.467Z,17.90
2022-10-05T17:44:16.655Z,17.80
2022-10-05T17:47:07.279Z,17.80
2022-10-05T17:50:17.641Z,17.70
2022-10-05T17:53:56.629Z,17.80
2022-10-05T17:56:50.818Z,17.80
2022-10-05T17:59:41.327Z,17.90
2022-10-05T18:02:39.401Z,17.90
2022-10-05T18:05:28.730Z,18.00
2022-10-05T18:08:21.261Z,18.00
2022-10-05T18:11:16.042Z,18.00
2022-10-05T18:14:27.304Z,18.00
2022-10-05T18:17:14.820Z,18.00
2022-10-05T18:20:27.795Z,18.00
2022-10-05T18:23:25.358Z,18.00
2022-10-05T18:26:49.421Z,18.10
2022-10-05T18:30:05.545Z,18.10
2022-10-05T18:33:13.226Z,18.10
2022-10-05T18:36:16.137Z,18.10
2022-10-05T18:39:09.497Z,18.10
2022-10-05T18:42:06.979Z,18.10
2022-10-05T18:45:06.208Z,18.10
2022-10-05T18:47:56.503Z,18.20
2022-10-05T18:50:50.997Z,18.20
2022-10-05T18:53:41.632Z,18.20
2022-10-05T18:56:41.022Z,18.20
2022-10-05T18:59:50.899Z,18.20
2022-10-05T19:02:42.897Z,18.30
2022-10-05T19:05:48.790Z,18.10
2022-10-05T19:08:39.064Z,18.10
2022-10-05T19:11:42.000Z,18.10
2022-10-05T19:15:00.991Z,18.00
2022-10-05T19:17:58.794Z,17.90
2022-10-05T19:21:16.974Z,17.80
2022-10-05T19:24:10.404Z,17.80
2022-10-05T19:27:15.849Z,17.90
2022-10-05T19:30:06.312Z,17.90
2022-10-05T19:33:32.356Z,17.90
2022-10-05T19:36:25.936Z,17.90
2022-10-05T19:39:36.999Z,17.90
2022-10-05T19:42:46.032Z,17.90
2022-10-05T19:45:36.571Z,17.80
2022-10-05T19:48:51.127Z,17.80
2022-10-05T19:51:50.726Z,17.70
2022-10-05T19:54:38.322Z,17.60
2022-10-05T19:57:27.206Z,17.50
2022-10-05T20:00:35.668Z,17.40
2022-10-05T20:03:27.606Z,17.40
2022-10-05T20:06:14.933Z,17.30
2022-10-05T20:09:06.405Z,17.20
2022-10-05T20:11:54.409Z,17.20
2022-10-05T20:14:43.748Z,17.20
2022-10-05T20:17:49.347Z,17.10
2022-10-05T20:20:47.093Z,17.00
2022-10-05T20:23:32.740Z,17.00
2022-10-05T20:27:01.343Z,16.90
2022-10-05T20:29:48.846Z,16.90
2022-10-05T20:32:36.401Z,16.90
2022-10-05T20:35:25.255Z,16.80
2022-10-05T20:38:12.312Z,16.70
2022-10-05T20:40:59.672Z,16.70
2022-10-05T20:43:47.083Z,16.60
2022-10-05T20:46:34.347Z,16.50
2022-10-05T20:49:24.172Z,16.50
2022-10-05T20:52:14.463Z,16.60
2022-10-05T20:55:02.010Z,16.60
2022-10-05T20:57:49.412Z,16.60
2022-10-05T21:00:38.488Z,16.60
2022-10-05T21:03:25.925Z,16.60
2022-10-05T21:06:13.744Z,16.60
2022-10-05T21:09:01.357Z,16.60
2022-10-05T21:11:52.344Z,16.50
2022-10-05T21:14:40.527Z,16.50
2022-10-05T21:17:28.152Z,16.60
2022-10-05T21:20:15.357Z,16.50
2022-10-05T21:23:02.991Z,16.40
2022-10-05T21:25:50.988Z,16.40
2022-10-05T21:28:39.496Z,16.20
2022-10-05T21:31:28.848Z,16.20
2022-10-05T21:34:16.689Z,16.20
2022-10-05T21:37:03.858Z,16.20
2022-10-05T21:39:51.078Z,16.20
2022-10-05T21:42:38.273Z,16.30
2022-10-05T21:45:25.937Z,16.30
2022-10-05T21:48:15.684Z,16.30
2022-10-05T21:51:03.979Z,16.20
2022-10-05T21:54:03.473Z,16.20
2022-10-05T21:56:54.248Z,16.10
2022-10-05T21:59:43.388Z,16.10
2022-10-05T22:02:30.850Z,15.90
2022-10-05T22:05:18.165Z,15.80
2022-10-05T22:08:06.356Z,15.70
2022-10-05T22:10:56.754Z,15.60
2022-10-05T22:13:47.170Z,15.60
2022-10-05T22:16:37.130Z,15.50
2022-10-05T22:19:24.377Z,15.40
2022-10-05T22:22:12.103Z,15.30
2022-10-05T22:24:59.076Z,15.30
2022-10-05T22:27:46.870Z,15.10
2022-10-05T22:30:34.408Z,15.10
2022-10-05T22:33:21.720Z,14.90
2022-10-05T22:36:10.324Z,14.80
2022-10-05T22:38:57.796Z,14.70
2022-10-05T22:41:44.855Z,14.70
2022-10-05T22:44:32.785Z,14.70
2022-10-05T22:47:20.312Z,14.60
2022-10-05T22:50:09.270Z,14.50
2022-10-05T22:52:56.876Z,14.50
2022-10-05T22:55:44.368Z,14.40
2022-10-05T22:58:31.684Z,14.20
2022-10-05T23:01:19.955Z,14.00
2022-10-05T23:04:08.705Z,14.00
2022-10-05T23:06:55.895Z,14.10
2022-10-05T23:09:42.994Z,14.10
2022-10-05T23:12:30.500Z,14.10
2022-10-05T23:15:18.037Z,14.00
2022-10-05T23:18:05.317Z,13.90
2022-10-05T23:20:57.369Z,13.90
2022-10-05T23:23:48.353Z,13.90
2022-10-05T23:26:36.196Z,13.90
2022-10-05T23:29:23.668Z,13.90
2022-10-05T23:32:11.181Z,14.00
2022-10-05T23:34:58.567Z,13.90
2022-10-05T23:37:46.436Z,13.90
2022-10-05T23:40:34.264Z,13.90
2022-10-05T23:43:21.881Z,13.80
2022-10-05T23:46:10.159Z,13.80
2022-10-05T23:48:57.448Z,13.90
2022-10-05T23:51:45.143Z,13.80
2022-10-05T23:54:32.501Z,13.90
2022-10-05T23:57:20.727Z,13.80
